createdAt,value
2017-09-22T00:00:51.732Z,48.73
2017-09-22T00:03:18.522Z,38.20
2017-09-22T00:05:45.288Z,46.33
2017-09-22T00:08:12.136Z,48.20
2017-09-22T00:10:38.888Z,48.03
2017-09-22T00:13:05.640Z,40.87
2017-09-22T00:15:32.964Z,45.47
2017-09-22T00:17:59.733Z,45.27
2017-09-22T00:20:26.514Z,42.67
2017-09-22T00:22:53.302Z,47.50
2017-09-22T00:25:20.043Z,40.77
2017-09-22T00:27:46.802Z,41.70
2017-09-22T00:30:13.613Z,46.70
2017-09-22T00:32:40.366Z,38.10
2017-09-22T00:35:07.147Z,38.93
2017-09-22T00:37:33.947Z,41.20
2017-09-22T00:40:00.751Z,44.30
2017-09-22T00:42:27.508Z,40.47
2017-09-22T00:44:54.328Z,35.30
2017-09-22T00:47:21.830Z,35.30
2017-09-22T00:49:48.607Z,40.83
2017-09-22T00:52:15.399Z,42.10
2017-09-22T00:54:42.415Z,45.30
2017-09-22T00:57:09.203Z,41.83
2017-09-22T00:59:36.008Z,36.27
2017-09-22T01:02:02.764Z,37.40
2017-09-22T01:04:29.515Z,37.63
2017-09-22T01:06:56.296Z,38.30
2017-09-22T01:09:23.059Z,34.80
2017-09-22T01:11:49.826Z,37.63
2017-09-22T01:14:16.660Z,39.90
2017-09-22T01:16:43.567Z,36.93
2017-09-22T01:19:10.341Z,36.60
2017-09-22T01:21:37.133Z,39.67
2017-09-22T01:24:03.907Z,37.17
2017-09-22T01:26:30.651Z,34.87
2017-09-22T01:28:57.471Z,33.47
2017-09-22T01:31:24.226Z,33.23
2017-09-22T01:33:51.098Z,35.90
2017-09-22T01:36:17.897Z,41.47
2017-09-22T01:38:44.662Z,34.30
2017-09-22T01:41:12.157Z,43.03
2017-09-22T01:43:38.966Z,33.63
2017-09-22T01:46:05.746Z,39.00
2017-09-22T01:48:32.500Z,32.10
2017-09-22T01:50:59.300Z,31.33
2017-09-22T01:53:26.048Z,27.03
2017-09-22T01:55:52.834Z,35.40
2017-09-22T01:58:19.638Z,30.20
2017-09-22T02:00:46.383Z,37.80
2017-09-22T02:03:13.141Z,34.83
2017-09-22T02:05:39.929Z,34.90
2017-09-22T02:08:06.671Z,32.53
2017-09-22T02:10:33.424Z,31.53
2017-09-22T02:13:00.234Z,32.10
2017-09-22T02:15:26.985Z,31.77
2017-09-22T02:17:53.763Z,28.77
2017-09-22T02:20:20.560Z,30.17
2017-09-22T02:22:47.319Z,29.20
2017-09-22T02:25:14.090Z,31.70
2017-09-22T02:27:40.898Z,33.50
2017-09-22T02:30:07.645Z,24.97
2017-09-22T02:32:34.414Z,24.30
2017-09-22T02:35:01.203Z,31.07
2017-09-22T02:37:27.966Z,26.93
2017-09-22T02:39:54.955Z,31.47
2017-09-22T02:42:21.740Z,32.03
2017-09-22T02:44:48.480Z,32.97
2017-09-22T02:47:15.250Z,40.60
2017-09-22T02:49:42.251Z,37.90
2017-09-22T02:52:08.993Z,35.53
2017-09-22T02:54:36.374Z,36.13
2017-09-22T02:57:03.187Z,37.10
2017-09-22T02:59:29.935Z,34.17
2017-09-22T03:01:56.675Z,37.40
2017-09-22T03:04:24.041Z,35.17
2017-09-22T03:06:50.806Z,36.30
2017-09-22T03:09:17.554Z,37.20
2017-09-22T03:11:44.348Z,43.03
2017-09-22T03:14:11.179Z,42.60
2017-09-22T03:16:37.928Z,34.27
2017-09-22T03:19:04.746Z,33.00
2017-09-22T03:21:31.510Z,37.37
2017-09-22T03:23:58.255Z,33.77
2017-09-22T03:26:25.044Z,37.83
2017-09-22T03:28:51.791Z,44.70
2017-09-22T03:31:18.563Z,30.27
2017-09-22T03:33:45.348Z,32.17
2017-09-22T03:36:12.099Z,28.80
2017-09-22T03:38:38.862Z,29.20
2017-09-22T03:41:05.642Z,32.60
2017-09-22T03:43:32.392Z,28.63
2017-09-22T03:45:59.168Z,33.53
2017-09-22T03:48:25.952Z,27.27
2017-09-22T03:50:52.711Z,31.57
2017-09-22T03:53:20.243Z,31.47
2017-09-22T03:55:47.054Z,32.57
2017-09-22T03:58:13.822Z,32.00
2017-09-22T04:00:40.573Z,33.23
2017-09-22T04:03:07.382Z,34.53
2017-09-22T04:05:34.886Z,36.57
2017-09-22T04:08:01.644Z,35.47
2017-09-22T04:10:28.434Z,34.50
2017-09-22T04:12:55.194Z,37.90
2017-09-22T04:15:22.681Z,40.53
2017-09-22T04:17:49.497Z,33.90
2017-09-22T04:20:16.247Z,35.50
2017-09-22T04:22:42.997Z,33.13
2017-09-22T04:25:09.785Z,32.23
2017-09-22T04:27:36.919Z,36.30
2017-09-22T04:30:03.694Z,37.90
2017-09-22T04:32:30.486Z,42.63
2017-09-22T04:34:57.262Z,43.07
2017-09-22T04:37:24.030Z,43.90
2017-09-22T04:39:50.840Z,46.20
2017-09-22T04:42:17.624Z,47.47
2017-09-22T04:44:44.391Z,56.27
2017-09-22T04:47:11.652Z,62.03
2017-09-22T04:49:38.399Z,41.53
2017-09-22T04:52:05.163Z,42.90
2017-09-22T04:54:31.967Z,65.67
2017-09-22T04:56:58.743Z,64.77
2017-09-22T04:59:25.491Z,71.67
2017-09-22T05:01:52.299Z,51.97
2017-09-22T05:04:19.048Z,59.20
2017-09-22T05:06:45.791Z,84.10
2017-09-22T05:09:12.599Z,74.83
2017-09-22T05:11:39.506Z,54.10
2017-09-22T05:14:06.261Z,46.67
2017-09-22T05:16:33.072Z,55.73
2017-09-22T05:19:00.055Z,72.07
2017-09-22T05:21:26.807Z,85.80
2017-09-22T05:23:53.608Z,77.70
2017-09-22T05:26:20.390Z,83.43
2017-09-22T05:28:47.139Z,77.00
2017-09-22T05:31:13.923Z,91.17
2017-09-22T05:33:41.096Z,68.90
2017-09-22T05:36:07.844Z,78.27
2017-09-22T05:38:35.388Z,70.10
2017-09-22T05:41:02.158Z,62.77
2017-09-22T05:43:28.929Z,65.63
2017-09-22T05:45:55.739Z,62.73
2017-09-22T05:48:22.497Z,64.03
2017-09-22T05:50:49.238Z,59.77
2017-09-22T05:53:16.058Z,52.20
2017-09-22T05:55:43.573Z,52.33
2017-09-22T05:58:10.440Z,62.33
2017-09-22T06:00:37.271Z,63.27
2017-09-22T06:03:04.020Z,62.87
2017-09-22T06:05:30.798Z,58.73
2017-09-22T06:07:57.598Z,64.43
2017-09-22T06:10:24.361Z,61.00
2017-09-22T06:12:51.122Z,73.10
2017-09-22T06:15:17.928Z,62.20
2017-09-22T06:17:45.351Z,66.90
2017-09-22T06:20:12.117Z,58.67
2017-09-22T06:22:38.919Z,50.20
2017-09-22T06:25:05.668Z,54.73
2017-09-22T06:27:32.421Z,48.37
2017-09-22T06:29:59.223Z,60.57
2017-09-22T06:32:25.990Z,54.53
2017-09-22T06:34:52.750Z,52.70
2017-09-22T06:37:19.555Z,55.77
2017-09-22T06:39:46.323Z,50.70
2017-09-22T06:42:13.067Z,49.57
2017-09-22T06:44:40.033Z,52.33
2017-09-22T06:47:06.808Z,49.37
2017-09-22T06:49:33.559Z,49.67
2017-09-22T06:52:00.371Z,51.43
2017-09-22T06:54:27.171Z,51.30
2017-09-22T06:56:53.934Z,47.80
2017-09-22T06:59:21.318Z,43.50
2017-09-22T07:01:48.086Z,54.43
2017-09-22T07:04:14.850Z,48.23
2017-09-22T07:06:41.680Z,47.50
2017-09-22T07:09:08.442Z,51.47
2017-09-22T07:11:35.203Z,45.87
2017-09-22T07:14:02.018Z,46.67
2017-09-22T07:16:28.789Z,52.40
2017-09-22T07:18:55.581Z,44.50
2017-09-22T07:21:22.368Z,41.33
2017-09-22T07:23:49.115Z,41.67
2017-09-22T07:26:16.746Z,40.10
2017-09-22T07:28:43.541Z,43.47
2017-09-22T07:31:10.288Z,37.17
2017-09-22T07:33:37.215Z,43.40
2017-09-22T07:36:03.994Z,38.07
2017-09-22T07:38:31.252Z,36.27
2017-09-22T07:40:57.997Z,38.13
2017-09-22T07:43:24.798Z,40.80
2017-09-22T07:45:51.548Z,39.47
2017-09-22T07:48:18.295Z,34.57
2017-09-22T07:50:45.138Z,35.47
2017-09-22T07:53:11.942Z,37.37
2017-09-22T07:55:38.691Z,39.43
2017-09-22T07:58:05.474Z,32.53
2017-09-22T08:00:32.339Z,43.33
2017-09-22T08:02:59.387Z,35.30
2017-09-22T08:05:26.443Z,31.37
2017-09-22T08:07:53.991Z,32.87
2017-09-22T08:10:20.749Z,34.60
2017-09-22T08:12:48.155Z,29.73
2017-09-22T08:15:14.923Z,26.97
2017-09-22T08:17:41.706Z,27.73
2017-09-22T08:20:08.518Z,29.87
2017-09-22T08:22:35.284Z,26.10
2017-09-22T08:25:02.039Z,21.20
2017-09-22T08:27:28.873Z,25.37
2017-09-22T08:29:56.402Z,25.00
2017-09-22T08:32:23.170Z,21.10
2017-09-22T08:34:49.959Z,24.03
2017-09-22T08:37:16.715Z,23.33
2017-09-22T08:39:43.481Z,24.67
2017-09-22T08:42:10.297Z,20.30
2017-09-22T08:44:37.047Z,23.53
2017-09-22T08:47:03.813Z,19.87
2017-09-22T08:49:30.616Z,19.93
2017-09-22T08:51:57.359Z,21.97
2017-09-22T08:54:24.127Z,16.90
2017-09-22T08:56:50.920Z,18.20
2017-09-22T08:59:17.686Z,19.07
2017-09-22T09:01:44.552Z,21.00
2017-09-22T09:04:11.346Z,21.40
2017-09-22T09:06:38.096Z,21.90
2017-09-22T09:09:04.930Z,21.23
2017-09-22T09:11:31.714Z,21.93
2017-09-22T09:13:58.555Z,22.13
2017-09-22T09:16:25.299Z,22.13
2017-09-22T09:18:52.099Z,19.97
2017-09-22T09:21:18.862Z,23.10
2017-09-22T09:23:45.611Z,25.73
2017-09-22T09:26:12.400Z,19.73
2017-09-22T09:28:39.139Z,19.20
2017-09-22T09:31:05.906Z,18.53
2017-09-22T09:33:32.719Z,19.97
2017-09-22T09:35:59.536Z,16.43
2017-09-22T09:38:26.397Z,16.87
2017-09-22T09:40:53.850Z,15.07
2017-09-22T09:43:20.611Z,16.93
2017-09-22T09:45:48.104Z,19.70
2017-09-22T09:48:14.908Z,16.60
2017-09-22T09:50:41.662Z,15.80
2017-09-22T09:53:08.411Z,20.07
2017-09-22T09:55:35.199Z,17.00
2017-09-22T09:58:01.961Z,13.63
2017-09-22T10:00:28.723Z,13.80
2017-09-22T10:02:55.506Z,15.73
2017-09-22T10:05:22.302Z,14.73
2017-09-22T10:07:49.039Z,13.77
2017-09-22T10:10:15.819Z,18.90
2017-09-22T10:12:42.583Z,11.57
2017-09-22T10:15:09.332Z,10.97
2017-09-22T10:17:36.143Z,10.87
2017-09-22T10:20:02.901Z,11.53
2017-09-22T10:22:29.662Z,8.30
2017-09-22T10:24:57.315Z,9.90
2017-09-22T10:27:24.056Z,9.27
2017-09-22T10:29:51.280Z,7.97
2017-09-22T10:32:18.175Z,10.03
2017-09-22T10:34:44.915Z,7.30
2017-09-22T10:37:11.684Z,7.80
2017-09-22T10:39:39.165Z,10.53
2017-09-22T10:42:05.905Z,6.87
2017-09-22T10:44:32.644Z,7.67
2017-09-22T10:46:59.433Z,7.40
2017-09-22T10:49:26.191Z,7.07
2017-09-22T10:51:52.935Z,7.93
2017-09-22T10:54:19.745Z,6.80
2017-09-22T10:56:46.497Z,6.83
2017-09-22T10:59:13.314Z,9.30
2017-09-22T11:01:40.115Z,6.87
2017-09-22T11:04:06.870Z,8.67
2017-09-22T11:06:33.637Z,7.97
2017-09-22T11:09:00.416Z,8.18
2017-09-22T11:11:27.174Z,8.40
2017-09-22T11:13:53.915Z,9.33
2017-09-22T11:16:20.711Z,10.57
2017-09-22T11:18:48.075Z,9.43
2017-09-22T11:21:14.813Z,7.87
2017-09-22T11:23:41.795Z,7.90
2017-09-22T11:26:08.552Z,7.97
2017-09-22T11:28:35.300Z,12.33
2017-09-22T11:31:02.532Z,9.93
2017-09-22T11:33:29.382Z,8.17
2017-09-22T11:35:56.143Z,9.93
2017-09-22T11:38:23.847Z,8.40
2017-09-22T11:40:50.611Z,7.83
2017-09-22T11:43:17.594Z,8.73
2017-09-22T11:45:44.376Z,11.50
2017-09-22T11:48:11.124Z,8.43
2017-09-22T11:50:37.923Z,6.60
2017-09-22T11:53:04.697Z,9.00
2017-09-22T11:55:31.457Z,7.30
2017-09-22T11:57:58.274Z,8.10
2017-09-22T12:00:25.056Z,8.90
2017-09-22T12:02:51.835Z,9.60
2017-09-22T12:05:19.209Z,11.17
2017-09-22T12:07:46.867Z,10.17
2017-09-22T12:10:13.774Z,8.90
2017-09-22T12:12:40.528Z,11.07
2017-09-22T12:15:07.341Z,7.20
2017-09-22T12:17:34.359Z,9.13
2017-09-22T12:20:01.127Z,7.70
2017-09-22T12:22:27.925Z,9.13
2017-09-22T12:24:54.859Z,7.50
2017-09-22T12:27:21.926Z,8.20
2017-09-22T12:29:48.737Z,8.33
2017-09-22T12:32:15.511Z,15.30
2017-09-22T12:34:42.603Z,9.83
2017-09-22T12:37:09.415Z,9.30
2017-09-22T12:39:36.152Z,9.03
2017-09-22T12:42:02.964Z,9.50
2017-09-22T12:44:29.777Z,7.40
2017-09-22T12:46:56.551Z,6.27
2017-09-22T12:49:23.317Z,6.80
2017-09-22T12:51:50.140Z,5.60
2017-09-22T12:54:16.912Z,6.80
2017-09-22T12:56:43.794Z,8.10
2017-09-22T12:59:10.714Z,8.77
2017-09-22T13:01:37.772Z,4.90
2017-09-22T13:04:04.570Z,5.93
2017-09-22T13:06:31.408Z,4.90
2017-09-22T13:08:58.232Z,6.00
2017-09-22T13:11:25.034Z,5.97
2017-09-22T13:13:51.854Z,4.73
2017-09-22T13:16:18.860Z,4.93
2017-09-22T13:18:45.630Z,7.83
2017-09-22T13:21:12.404Z,11.33
2017-09-22T13:23:39.508Z,5.40
2017-09-22T13:26:06.252Z,3.87
2017-09-22T13:28:33.766Z,17.30
2017-09-22T13:31:00.549Z,5.00
2017-09-22T13:33:27.281Z,5.67
2017-09-22T13:35:54.057Z,4.93
2017-09-22T13:38:20.823Z,5.50
2017-09-22T13:40:47.658Z,7.97
2017-09-22T13:43:14.476Z,3.97
2017-09-22T13:45:42.007Z,5.90
2017-09-22T13:48:08.807Z,4.83
2017-09-22T13:50:35.634Z,4.53
2017-09-22T13:53:02.371Z,3.93
2017-09-22T13:55:29.146Z,3.97
2017-09-22T13:57:55.939Z,3.83
2017-09-22T14:00:22.698Z,4.10
2017-09-22T14:02:49.529Z,3.33
2017-09-22T14:05:16.307Z,4.67
2017-09-22T14:07:43.293Z,5.00
2017-09-22T14:10:10.051Z,4.03
2017-09-22T14:12:36.834Z,3.40
2017-09-22T14:15:03.664Z,4.73
2017-09-22T14:17:30.412Z,3.80
2017-09-22T14:19:57.228Z,3.80
2017-09-22T14:22:24.288Z,5.60
2017-09-22T14:24:51.025Z,3.40
2017-09-22T14:27:17.803Z,3.63
2017-09-22T14:29:44.568Z,7.53
2017-09-22T14:32:11.343Z,3.90
2017-09-22T14:34:38.291Z,5.10
2017-09-22T14:37:05.078Z,5.20
2017-09-22T14:39:31.845Z,3.97
2017-09-22T14:41:58.633Z,4.83
2017-09-22T14:44:25.715Z,4.07
2017-09-22T14:46:52.464Z,4.07
2017-09-22T14:49:19.278Z,4.93
2017-09-22T14:51:46.021Z,6.93
2017-09-22T14:54:12.814Z,4.67
2017-09-22T14:56:39.591Z,10.77
2017-09-22T14:59:06.370Z,5.60
2017-09-22T15:01:33.131Z,4.67
2017-09-22T15:03:59.915Z,3.90
2017-09-22T15:06:26.663Z,4.30
2017-09-22T15:08:53.433Z,4.23
2017-09-22T15:11:20.234Z,10.07
2017-09-22T15:13:46.979Z,8.00
2017-09-22T15:16:13.739Z,4.87
2017-09-22T15:18:40.529Z,5.83
2017-09-22T15:21:07.290Z,4.70
2017-09-22T15:23:34.094Z,10.00
2017-09-22T15:26:00.893Z,4.50
2017-09-22T15:28:27.694Z,4.47
2017-09-22T15:30:54.443Z,6.50
2017-09-22T15:33:21.288Z,9.67
2017-09-22T15:35:48.052Z,7.33
2017-09-22T15:38:14.810Z,7.97
2017-09-22T15:40:41.611Z,12.63
2017-09-22T15:43:09.110Z,9.57
2017-09-22T15:45:35.884Z,7.63
2017-09-22T15:48:02.660Z,7.90
2017-09-22T15:50:29.422Z,9.33
2017-09-22T15:52:56.164Z,11.07
2017-09-22T15:55:22.962Z,10.27
2017-09-22T15:57:49.718Z,8.10
2017-09-22T16:00:16.461Z,10.90
2017-09-22T16:02:43.254Z,10.40
2017-09-22T16:05:10.175Z,9.17
2017-09-22T16:07:36.937Z,6.00
2017-09-22T16:10:03.716Z,7.43
2017-09-22T16:12:30.464Z,5.50
2017-09-22T16:14:57.226Z,13.50
2017-09-22T16:17:24.054Z,7.53
2017-09-22T16:19:51.604Z,7.20
2017-09-22T16:22:18.341Z,8.53
2017-09-22T16:24:45.134Z,5.83
2017-09-22T16:27:11.900Z,4.23
2017-09-22T16:29:38.989Z,5.77
2017-09-22T16:32:06.108Z,4.60
2017-09-22T16:34:33.102Z,4.57
2017-09-22T16:36:59.859Z,6.30
2017-09-22T16:39:27.000Z,5.43
2017-09-22T16:41:53.750Z,6.97
2017-09-22T16:44:20.499Z,5.90
2017-09-22T16:46:47.295Z,6.80
2017-09-22T16:49:14.371Z,7.30
2017-09-22T16:51:41.141Z,8.73
2017-09-22T16:54:07.923Z,10.20
2017-09-22T16:56:34.724Z,8.23
2017-09-22T16:59:01.563Z,8.17
2017-09-22T17:01:28.342Z,6.07
2017-09-22T17:03:55.087Z,8.57
2017-09-22T17:06:21.853Z,8.13
2017-09-22T17:08:49.388Z,7.80
2017-09-22T17:11:16.182Z,8.10
2017-09-22T17:13:43.695Z,6.90
2017-09-22T17:16:11.212Z,6.83
2017-09-22T17:18:38.735Z,8.47
2017-09-22T17:21:05.480Z,9.93
2017-09-22T17:23:32.279Z,6.53
2017-09-22T17:25:59.042Z,6.50
2017-09-22T17:28:25.806Z,8.80
2017-09-22T17:30:52.606Z,8.53
2017-09-22T17:33:19.339Z,7.43
2017-09-22T17:35:46.103Z,5.93
2017-09-22T17:38:12.912Z,6.50
2017-09-22T17:40:39.660Z,6.50
2017-09-22T17:43:06.400Z,5.93
2017-09-22T17:45:33.199Z,5.43
2017-09-22T17:47:59.960Z,7.30
2017-09-22T17:50:26.912Z,5.67
2017-09-22T17:52:53.732Z,7.83
2017-09-22T17:55:21.223Z,7.93
2017-09-22T17:57:47.976Z,6.43
2017-09-22T18:00:14.759Z,6.03
2017-09-22T18:02:42.130Z,7.70
2017-09-22T18:05:09.066Z,6.50
2017-09-22T18:07:35.851Z,7.50
2017-09-22T18:10:02.600Z,6.00
2017-09-22T18:12:31.683Z,6.50
2017-09-22T18:14:58.475Z,6.33
2017-09-22T18:17:25.246Z,7.77
2017-09-22T18:19:52.018Z,4.73
2017-09-22T18:22:19.174Z,6.60
2017-09-22T18:24:45.943Z,7.93
2017-09-22T18:27:12.713Z,5.97
2017-09-22T18:29:39.514Z,8.37
2017-09-22T18:32:06.891Z,7.40
2017-09-22T18:34:33.670Z,9.63
2017-09-22T18:37:00.468Z,10.00
2017-09-22T18:39:27.269Z,8.30
2017-09-22T18:41:54.019Z,8.83
2017-09-22T18:44:20.983Z,10.20
2017-09-22T18:46:47.736Z,6.73
2017-09-22T18:49:14.568Z,7.10
2017-09-22T18:51:42.023Z,7.10
2017-09-22T18:54:08.780Z,10.90
2017-09-22T18:56:36.057Z,7.53
2017-09-22T18:59:02.906Z,8.07
2017-09-22T19:01:29.691Z,9.70
2017-09-22T19:03:56.437Z,8.50
2017-09-22T19:06:23.246Z,10.30
2017-09-22T19:08:50.075Z,8.40
2017-09-22T19:11:16.836Z,12.57
2017-09-22T19:13:43.772Z,9.70
2017-09-22T19:16:10.534Z,11.03
2017-09-22T19:18:37.287Z,11.50
2017-09-22T19:21:04.088Z,10.40
2017-09-22T19:23:30.862Z,14.00
2017-09-22T19:25:57.612Z,10.63
2017-09-22T19:28:24.410Z,10.43
2017-09-22T19:30:51.214Z,8.97
2017-09-22T19:33:17.968Z,9.60
2017-09-22T19:35:44.766Z,9.07
2017-09-22T19:38:11.510Z,9.73
2017-09-22T19:40:38.290Z,11.13
2017-09-22T19:43:05.110Z,8.90
2017-09-22T19:45:31.856Z,10.77
2017-09-22T19:47:58.814Z,11.53
2017-09-22T19:50:25.614Z,8.93
2017-09-22T19:52:52.390Z,9.97
2017-09-22T19:55:19.293Z,9.73
2017-09-22T19:57:46.098Z,10.63
2017-09-22T20:00:12.846Z,12.10
2017-09-22T20:02:39.612Z,12.37
2017-09-22T20:05:06.425Z,14.00
2017-09-22T20:07:33.208Z,17.80
2017-09-22T20:09:59.976Z,10.77
2017-09-22T20:12:26.800Z,11.90
2017-09-22T20:14:53.634Z,12.10
2017-09-22T20:17:20.439Z,14.73
2017-09-22T20:19:47.267Z,16.40
2017-09-22T20:22:14.030Z,16.20
2017-09-22T20:24:40.776Z,17.10
2017-09-22T20:27:07.563Z,14.57
2017-09-22T20:29:34.343Z,11.77
2017-09-22T20:32:01.103Z,15.70
2017-09-22T20:34:27.920Z,16.00
2017-09-22T20:36:54.719Z,13.53
2017-09-22T20:39:21.500Z,13.90
2017-09-22T20:41:48.302Z,14.90
2017-09-22T20:44:15.081Z,19.50
2017-09-22T20:46:41.846Z,17.53
2017-09-22T20:49:08.658Z,14.90
2017-09-22T20:51:35.404Z,20.20
2017-09-22T20:54:02.159Z,14.50
2017-09-22T20:56:28.981Z,8.50
2017-09-22T20:58:55.728Z,12.03
2017-09-22T21:01:22.476Z,10.50
2017-09-22T21:03:49.252Z,11.97
2017-09-22T21:06:16.024Z,10.07
2017-09-22T21:08:43.525Z,10.20
2017-09-22T21:11:10.310Z,10.73
2017-09-22T21:13:37.056Z,11.13
2017-09-22T21:16:03.823Z,10.63
2017-09-22T21:18:30.622Z,10.70
2017-09-22T21:20:57.383Z,11.67
2017-09-22T21:23:24.120Z,12.57
2017-09-22T21:25:50.910Z,10.10
2017-09-22T21:28:17.655Z,10.07
2017-09-22T21:30:44.603Z,11.67
2017-09-22T21:33:11.395Z,11.40
2017-09-22T21:35:38.484Z,11.10
2017-09-22T21:38:05.240Z,11.60
2017-09-22T21:40:32.033Z,11.93
2017-09-22T21:42:58.806Z,14.07
2017-09-22T21:45:25.574Z,12.10
2017-09-22T21:47:52.356Z,15.60
2017-09-22T21:50:19.105Z,13.87
2017-09-22T21:52:45.846Z,17.20
2017-09-22T21:55:12.992Z,13.23
2017-09-22T21:57:40.049Z,15.37
2017-09-22T22:00:06.935Z,15.70
2017-09-22T22:02:39.986Z,24.80
2017-09-22T22:05:12.878Z,19.17
2017-09-22T22:07:39.934Z,15.50
2017-09-22T22:10:07.338Z,18.70
2017-09-22T22:12:34.274Z,15.30
2017-09-22T22:15:01.493Z,16.93
2017-09-22T22:17:28.548Z,16.10
2017-09-22T22:19:55.601Z,15.23
2017-09-22T22:22:22.657Z,14.87
2017-09-22T22:24:49.710Z,30.43
2017-09-22T22:27:16.765Z,31.20
2017-09-22T22:29:44.475Z,51.80
2017-09-22T22:32:11.488Z,39.20
2017-09-22T22:34:38.368Z,33.53
2017-09-22T22:37:05.584Z,38.87
2017-09-22T22:39:32.474Z,44.43
2017-09-22T22:41:59.695Z,37.73
2017-09-22T22:44:26.746Z,36.37
2017-09-22T22:46:54.647Z,30.53
2017-09-22T22:49:21.609Z,61.77
2017-09-22T22:51:49.081Z,62.47
2017-09-22T22:54:16.186Z,41.17
2017-09-22T22:56:43.410Z,23.93
2017-09-22T22:59:11.127Z,23.60
2017-09-22T23:01:38.268Z,23.73
2017-09-22T23:04:05.323Z,20.10
2017-09-22T23:06:32.222Z,18.70
2017-09-22T23:08:59.263Z,19.67
2017-09-22T23:11:26.314Z,23.47
2017-09-22T23:13:53.531Z,18.90
2017-09-22T23:16:20.586Z,21.70
2017-09-22T23:18:47.641Z,19.80
2017-09-22T23:21:15.407Z,20.83
2017-09-22T23:23:42.666Z,17.87
2017-09-22T23:26:09.719Z,17.27
2017-09-22T23:28:37.609Z,18.07
2017-09-22T23:31:04.589Z,20.00
2017-09-22T23:33:31.798Z,20.13
2017-09-22T23:35:58.856Z,21.93
2017-09-22T23:38:26.678Z,22.37
2017-09-22T23:40:54.189Z,19.40
2017-09-22T23:43:21.245Z,22.63
2017-09-22T23:45:48.296Z,23.10
2017-09-22T23:48:15.346Z,22.73
2017-09-22T23:50:42.402Z,24.40
2017-09-22T23:53:09.456Z,23.97
2017-09-22T23:55:36.506Z,22.57
2017-09-22T23:58:03.894Z,21.57
